sensor_id;sensor_type;location;lat;lon;timestamp;P1;durP1;ratioP1;P2;durP2;ratioP2
13343;SDS011;6741;48.964;9.406;2023-06-10T00:01:42;6.78;;;6.18;;
13343;SDS011;6741;48.964;9.406;2023-06-10T00:04:12;7.72;;;6.88;;
13343;SDS011;6741;48.964;9.406;2023-06-10T00:06:39;6.93;;;6.32;;
13343;SDS011;6741;48.964;9.406;2023-06-10T00:09:06;7.20;;;6.60;;
13343;SDS011;6741;48.964;9.406;2023-06-10T00:11:36;6.50;;;6.00;;
13343;SDS011;6741;48.964;9.406;2023-06-10T00:14:04;6.32;;;5.80;;
13343;SDS011;6741;48.964;9.406;2023-06-10T00:16:31;5.75;;;5.28;;
13343;SDS011;6741;48.964;9.406;2023-06-10T00:18:59;5.03;;;4.63;;
13343;SDS011;6741;48.964;9.406;2023-06-10T00:21:26;5.25;;;4.75;;
13343;SDS011;6741;48.964;9.406;2023-06-10T00:23:53;5.28;;;4.88;;
13343;SDS011;6741;48.964;9.406;2023-06-10T00:28:50;5.78;;;5.28;;
13343;SDS011;6741;48.964;9.406;2023-06-10T00:31:17;6.05;;;5.55;;
13343;SDS011;6741;48.964;9.406;2023-06-10T00:33:44;6.60;;;5.28;;
13343;SDS011;6741;48.964;9.406;2023-06-10T00:36:11;5.78;;;5.28;;
13343;SDS011;6741;48.964;9.406;2023-06-10T00:38:38;5.78;;;5.22;;
13343;SDS011;6741;48.964;9.406;2023-06-10T00:41:06;5.95;;;5.50;;
13343;SDS011;6741;48.964;9.406;2023-06-10T00:43:33;5.90;;;5.40;;
13343;SDS011;6741;48.964;9.406;2023-06-10T00:46:01;6.07;;;5.57;;
13343;SDS011;6741;48.964;9.406;2023-06-10T00:48:28;6.45;;;5.80;;
13343;SDS011;6741;48.964;9.406;2023-06-10T00:50:55;6.32;;;5.70;;
13343;SDS011;6741;48.964;9.406;2023-06-10T00:53:23;6.10;;;5.60;;
13343;SDS011;6741;48.964;9.406;2023-06-10T00:55:50;5.88;;;5.38;;
13343;SDS011;6741;48.964;9.406;2023-06-10T00:58:17;6.03;;;5.50;;
13343;SDS011;6741;48.964;9.406;2023-06-10T01:00:44;6.15;;;5.65;;
13343;SDS011;6741;48.964;9.406;2023-06-10T01:03:13;6.60;;;6.00;;
13343;SDS011;6741;48.964;9.406;2023-06-10T01:05:42;6.80;;;6.15;;
13343;SDS011;6741;48.964;9.406;2023-06-10T01:08:12;6.30;;;5.70;;
13343;SDS011;6741;48.964;9.406;2023-06-10T01:10:46;6.90;;;6.32;;
13343;SDS011;6741;48.964;9.406;2023-06-10T01:13:17;6.60;;;6.00;;
13343;SDS011;6741;48.964;9.406;2023-06-10T01:15:48;6.50;;;5.90;;
13343;SDS011;6741;48.964;9.406;2023-06-10T01:18:18;6.72;;;6.07;;
13343;SDS011;6741;48.964;9.406;2023-06-10T01:20:44;6.00;;;5.47;;
13343;SDS011;6741;48.964;9.406;2023-06-10T01:23:14;5.70;;;5.20;;
13343;SDS011;6741;48.964;9.406;2023-06-10T01:25:43;5.82;;;5.30;;
13343;SDS011;6741;48.964;9.406;2023-06-10T01:28:17;5.70;;;5.28;;
13343;SDS011;6741;48.964;9.406;2023-06-10T01:30:49;5.68;;;5.28;;
13343;SDS011;6741;48.964;9.406;2023-06-10T01:33:22;5.70;;;5.20;;
13343;SDS011;6741;48.964;9.406;2023-06-10T01:35:53;5.50;;;5.00;;
13343;SDS011;6741;48.964;9.406;2023-06-10T01:38:24;6.22;;;5.18;;
13343;SDS011;6741;48.964;9.406;2023-06-10T01:40:53;7.05;;;5.13;;
13343;SDS011;6741;48.964;9.406;2023-06-10T01:43:21;6.10;;;5.60;;
13343;SDS011;6741;48.964;9.406;2023-06-10T01:45:49;5.70;;;5.22;;
13343;SDS011;6741;48.964;9.406;2023-06-10T01:48:16;5.80;;;5.30;;
13343;SDS011;6741;48.964;9.406;2023-06-10T01:50:43;7.00;;;5.68;;
13343;SDS011;6741;48.964;9.406;2023-06-10T01:53:10;6.20;;;5.70;;
13343;SDS011;6741;48.964;9.406;2023-06-10T01:55:38;6.68;;;6.07;;
13343;SDS011;6741;48.964;9.406;2023-06-10T01:58:05;6.00;;;5.50;;
13343;SDS011;6741;48.964;9.406;2023-06-10T02:00:32;5.68;;;5.25;;
13343;SDS011;6741;48.964;9.406;2023-06-10T02:02:59;6.22;;;5.72;;
13343;SDS011;6741;48.964;9.406;2023-06-10T02:05:26;5.32;;;4.93;;
13343;SDS011;6741;48.964;9.406;2023-06-10T02:07:53;6.28;;;5.68;;
13343;SDS011;6741;48.964;9.406;2023-06-10T02:10:20;6.05;;;5.55;;
13343;SDS011;6741;48.964;9.406;2023-06-10T02:12:48;5.45;;;4.95;;
13343;SDS011;6741;48.964;9.406;2023-06-10T02:15:15;6.05;;;5.55;;
13343;SDS011;6741;48.964;9.406;2023-06-10T02:17:42;5.65;;;5.15;;
13343;SDS011;6741;48.964;9.406;2023-06-10T02:20:10;5.78;;;5.38;;
13343;SDS011;6741;48.964;9.406;2023-06-10T02:22:38;6.30;;;5.68;;
13343;SDS011;6741;48.964;9.406;2023-06-10T02:25:06;5.53;;;5.13;;
13343;SDS011;6741;48.964;9.406;2023-06-10T02:27:33;6.43;;;5.82;;
13343;SDS011;6741;48.964;9.406;2023-06-10T02:30:02;5.75;;;5.25;;
13343;SDS011;6741;48.964;9.406;2023-06-10T02:32:29;6.00;;;5.38;;
13343;SDS011;6741;48.964;9.406;2023-06-10T02:34:56;6.18;;;5.15;;
13343;SDS011;6741;48.964;9.406;2023-06-10T02:37:23;6.00;;;5.50;;
13343;SDS011;6741;48.964;9.406;2023-06-10T02:39:49;5.65;;;5.20;;
13343;SDS011;6741;48.964;9.406;2023-06-10T02:42:16;5.40;;;5.00;;
13343;SDS011;6741;48.964;9.406;2023-06-10T02:44:44;5.82;;;5.38;;
13343;SDS011;6741;48.964;9.406;2023-06-10T02:47:12;5.70;;;5.22;;
13343;SDS011;6741;48.964;9.406;2023-06-10T02:49:39;5.82;;;5.32;;
13343;SDS011;6741;48.964;9.406;2023-06-10T02:52:06;5.47;;;4.97;;
13343;SDS011;6741;48.964;9.406;2023-06-10T02:54:33;5.90;;;5.40;;
13343;SDS011;6741;48.964;9.406;2023-06-10T02:57:00;6.00;;;5.50;;
13343;SDS011;6741;48.964;9.406;2023-06-10T02:59:27;6.20;;;5.60;;
13343;SDS011;6741;48.964;9.406;2023-06-10T03:01:54;6.10;;;5.60;;
13343;SDS011;6741;48.964;9.406;2023-06-10T03:04:23;5.97;;;5.47;;
13343;SDS011;6741;48.964;9.406;2023-06-10T03:06:50;5.60;;;5.10;;
13343;SDS011;6741;48.964;9.406;2023-06-10T03:09:17;6.07;;;5.57;;
13343;SDS011;6741;48.964;9.406;2023-06-10T03:11:44;6.80;;;5.47;;
13343;SDS011;6741;48.964;9.406;2023-06-10T03:14:11;5.80;;;5.30;;
13343;SDS011;6741;48.964;9.406;2023-06-10T03:16:38;5.72;;;5.22;;
13343;SDS011;6741;48.964;9.406;2023-06-10T03:19:05;6.22;;;5.72;;
13343;SDS011;6741;48.964;9.406;2023-06-10T03:21:34;6.30;;;5.78;;
13343;SDS011;6741;48.964;9.406;2023-06-10T03:24:02;6.18;;;5.68;;
13343;SDS011;6741;48.964;9.406;2023-06-10T03:26:30;6.35;;;5.85;;
13343;SDS011;6741;48.964;9.406;2023-06-10T03:28:57;6.05;;;5.55;;
13343;SDS011;6741;48.964;9.406;2023-06-10T03:31:24;5.95;;;5.35;;
13343;SDS011;6741;48.964;9.406;2023-06-10T03:33:51;6.90;;;6.20;;
13343;SDS011;6741;48.964;9.406;2023-06-10T03:36:17;6.25;;;5.68;;
13343;SDS011;6741;48.964;9.406;2023-06-10T03:38:46;7.07;;;6.38;;
13343;SDS011;6741;48.964;9.406;2023-06-10T03:41:13;6.65;;;6.05;;
13343;SDS011;6741;48.964;9.406;2023-06-10T03:43:40;6.97;;;6.38;;
13343;SDS011;6741;48.964;9.406;2023-06-10T03:46:07;6.72;;;6.13;;
13343;SDS011;6741;48.964;9.406;2023-06-10T03:48:34;6.97;;;6.35;;
13343;SDS011;6741;48.964;9.406;2023-06-10T03:51:02;7.93;;;7.17;;
13343;SDS011;6741;48.964;9.406;2023-06-10T03:53:29;8.40;;;7.50;;
13343;SDS011;6741;48.964;9.406;2023-06-10T03:55:57;7.47;;;6.87;;
13343;SDS011;6741;48.964;9.406;2023-06-10T03:58:24;7.47;;;6.77;;
13343;SDS011;6741;48.964;9.406;2023-06-10T04:00:52;10.17;;;7.57;;
13343;SDS011;6741;48.964;9.406;2023-06-10T04:03:20;7.67;;;6.97;;
13343;SDS011;6741;48.964;9.406;2023-06-10T04:05:48;8.00;;;7.30;;
13343;SDS011;6741;48.964;9.406;2023-06-10T04:08:15;7.60;;;7.00;;
13343;SDS011;6741;48.964;9.406;2023-06-10T04:10:42;8.00;;;7.30;;
13343;SDS011;6741;48.964;9.406;2023-06-10T04:13:10;8.27;;;7.57;;
13343;SDS011;6741;48.964;9.406;2023-06-10T04:15:37;7.80;;;7.10;;
13343;SDS011;6741;48.964;9.406;2023-06-10T04:18:04;7.60;;;7.00;;
13343;SDS011;6741;48.964;9.406;2023-06-10T04:20:31;6.70;;;6.10;;
13343;SDS011;6741;48.964;9.406;2023-06-10T04:22:58;7.57;;;6.82;;
13343;SDS011;6741;48.964;9.406;2023-06-10T04:25:26;6.70;;;6.15;;
13343;SDS011;6741;48.964;9.406;2023-06-10T04:27:53;6.88;;;6.32;;
13343;SDS011;6741;48.964;9.406;2023-06-10T04:30:22;7.95;;;7.25;;
13343;SDS011;6741;48.964;9.406;2023-06-10T04:32:49;6.75;;;6.15;;
13343;SDS011;6741;48.964;9.406;2023-06-10T04:35:17;7.63;;;6.93;;
13343;SDS011;6741;48.964;9.406;2023-06-10T04:37:44;8.23;;;7.53;;
13343;SDS011;6741;48.964;9.406;2023-06-10T04:40:10;6.63;;;6.10;;
13343;SDS011;6741;48.964;9.406;2023-06-10T04:42:37;7.00;;;6.40;;
13343;SDS011;6741;48.964;9.406;2023-06-10T04:45:05;7.00;;;6.40;;
13343;SDS011;6741;48.964;9.406;2023-06-10T04:47:34;7.00;;;6.43;;
13343;SDS011;6741;48.964;9.406;2023-06-10T04:50:01;7.80;;;7.10;;
13343;SDS011;6741;48.964;9.406;2023-06-10T04:52:30;7.45;;;6.75;;
13343;SDS011;6741;48.964;9.406;2023-06-10T04:54:58;7.05;;;6.53;;
13343;SDS011;6741;48.964;9.406;2023-06-10T04:57:25;7.53;;;6.85;;
13343;SDS011;6741;48.964;9.406;2023-06-10T04:59:52;7.30;;;6.55;;
13343;SDS011;6741;48.964;9.406;2023-06-10T05:02:19;8.88;;;8.00;;
13343;SDS011;6741;48.964;9.406;2023-06-10T05:04:48;7.65;;;7.03;;
13343;SDS011;6741;48.964;9.406;2023-06-10T05:07:15;7.40;;;6.80;;
13343;SDS011;6741;48.964;9.406;2023-06-10T05:09:42;7.70;;;7.00;;
13343;SDS011;6741;48.964;9.406;2023-06-10T05:12:10;7.38;;;6.78;;
13343;SDS011;6741;48.964;9.406;2023-06-10T05:14:37;7.45;;;6.75;;
13343;SDS011;6741;48.964;9.406;2023-06-10T05:17:04;7.72;;;7.03;;
13343;SDS011;6741;48.964;9.406;2023-06-10T05:19:31;7.32;;;6.63;;
13343;SDS011;6741;48.964;9.406;2023-06-10T05:22:02;7.15;;;6.55;;
13343;SDS011;6741;48.964;9.406;2023-06-10T05:24:29;8.35;;;7.65;;
13343;SDS011;6741;48.964;9.406;2023-06-10T05:26:56;8.07;;;7.47;;
13343;SDS011;6741;48.964;9.406;2023-06-10T05:29:23;6.60;;;6.07;;
13343;SDS011;6741;48.964;9.406;2023-06-10T05:31:50;7.30;;;6.70;;
13343;SDS011;6741;48.964;9.406;2023-06-10T05:34:17;6.80;;;6.20;;
13343;SDS011;6741;48.964;9.406;2023-06-10T05:36:44;6.50;;;6.00;;
13343;SDS011;6741;48.964;9.406;2023-06-10T05:39:13;7.43;;;6.72;;
13343;SDS011;6741;48.964;9.406;2023-06-10T05:41:40;8.43;;;6.68;;
13343;SDS011;6741;48.964;9.406;2023-06-10T05:44:06;6.20;;;5.70;;
13343;SDS011;6741;48.964;9.406;2023-06-10T05:46:33;6.18;;;5.57;;
13343;SDS011;6741;48.964;9.406;2023-06-10T05:49:00;5.65;;;5.25;;
13343;SDS011;6741;48.964;9.406;2023-06-10T05:51:27;6.90;;;6.30;;
13343;SDS011;6741;48.964;9.406;2023-06-10T05:53:54;6.53;;;6.00;;
13343;SDS011;6741;48.964;9.406;2023-06-10T05:56:23;6.68;;;6.10;;
13343;SDS011;6741;48.964;9.406;2023-06-10T05:58:50;6.75;;;6.13;;
13343;SDS011;6741;48.964;9.406;2023-06-10T06:01:17;6.47;;;5.88;;
13343;SDS011;6741;48.964;9.406;2023-06-10T06:03:44;8.10;;;5.75;;
13343;SDS011;6741;48.964;9.406;2023-06-10T06:06:11;7.20;;;6.45;;
13343;SDS011;6741;48.964;9.406;2023-06-10T06:08:38;6.85;;;6.25;;
13343;SDS011;6741;48.964;9.406;2023-06-10T06:11:05;6.47;;;5.97;;
13343;SDS011;6741;48.964;9.406;2023-06-10T06:13:33;6.35;;;5.85;;
13343;SDS011;6741;48.964;9.406;2023-06-10T06:16:00;6.30;;;5.80;;
13343;SDS011;6741;48.964;9.406;2023-06-10T06:18:27;6.45;;;5.85;;
13343;SDS011;6741;48.964;9.406;2023-06-10T06:20:54;6.20;;;5.70;;
13343;SDS011;6741;48.964;9.406;2023-06-10T06:23:21;6.43;;;5.82;;
13343;SDS011;6741;48.964;9.406;2023-06-10T06:25:48;6.40;;;5.90;;
13343;SDS011;6741;48.964;9.406;2023-06-10T06:28:15;6.30;;;5.80;;
13343;SDS011;6741;48.964;9.406;2023-06-10T06:30:45;7.00;;;6.28;;
13343;SDS011;6741;48.964;9.406;2023-06-10T06:33:12;6.85;;;6.25;;
13343;SDS011;6741;48.964;9.406;2023-06-10T06:35:39;5.97;;;5.50;;
13343;SDS011;6741;48.964;9.406;2023-06-10T06:38:06;6.13;;;5.63;;
13343;SDS011;6741;48.964;9.406;2023-06-10T06:40:33;6.63;;;6.03;;
13343;SDS011;6741;48.964;9.406;2023-06-10T06:43:00;5.70;;;5.30;;
13343;SDS011;6741;48.964;9.406;2023-06-10T06:45:27;6.32;;;5.82;;
13343;SDS011;6741;48.964;9.406;2023-06-10T06:47:55;5.90;;;5.50;;
13343;SDS011;6741;48.964;9.406;2023-06-10T06:50:22;6.00;;;5.40;;
13343;SDS011;6741;48.964;9.406;2023-06-10T06:52:49;5.82;;;5.32;;
13343;SDS011;6741;48.964;9.406;2023-06-10T06:55:16;7.63;;;5.55;;
13343;SDS011;6741;48.964;9.406;2023-06-10T06:57:43;6.85;;;6.15;;
13343;SDS011;6741;48.964;9.406;2023-06-10T07:00:10;6.10;;;5.60;;
13343;SDS011;6741;48.964;9.406;2023-06-10T07:02:38;6.28;;;5.78;;
13343;SDS011;6741;48.964;9.406;2023-06-10T07:05:07;6.05;;;5.55;;
13343;SDS011;6741;48.964;9.406;2023-06-10T07:07:34;5.75;;;5.25;;
13343;SDS011;6741;48.964;9.406;2023-06-10T07:10:01;6.15;;;5.65;;
13343;SDS011;6741;48.964;9.406;2023-06-10T07:12:28;5.43;;;5.03;;
13343;SDS011;6741;48.964;9.406;2023-06-10T07:14:55;6.10;;;5.50;;
13343;SDS011;6741;48.964;9.406;2023-06-10T07:17:22;5.47;;;5.05;;
13343;SDS011;6741;48.964;9.406;2023-06-10T07:19:49;5.47;;;5.00;;
13343;SDS011;6741;48.964;9.406;2023-06-10T07:22:17;5.90;;;5.40;;
13343;SDS011;6741;48.964;9.406;2023-06-10T07:24:44;8.60;;;6.10;;
13343;SDS011;6741;48.964;9.406;2023-06-10T07:27:11;6.32;;;5.72;;
13343;SDS011;6741;48.964;9.406;2023-06-10T07:29:38;5.85;;;5.32;;
13343;SDS011;6741;48.964;9.406;2023-06-10T07:32:05;6.10;;;5.60;;
13343;SDS011;6741;48.964;9.406;2023-06-10T07:34:33;6.50;;;5.97;;
13343;SDS011;6741;48.964;9.406;2023-06-10T07:37:00;6.40;;;5.90;;
13343;SDS011;6741;48.964;9.406;2023-06-10T07:39:28;7.07;;;6.47;;
13343;SDS011;6741;48.964;9.406;2023-06-10T07:41:55;6.35;;;5.75;;
13343;SDS011;6741;48.964;9.406;2023-06-10T07:44:22;6.55;;;6.05;;
13343;SDS011;6741;48.964;9.406;2023-06-10T07:46:49;6.25;;;5.72;;
13343;SDS011;6741;48.964;9.406;2023-06-10T07:49:16;6.20;;;5.70;;
13343;SDS011;6741;48.964;9.406;2023-06-10T07:51:43;6.90;;;6.30;;
13343;SDS011;6741;48.964;9.406;2023-06-10T07:54:10;6.10;;;5.60;;
13343;SDS011;6741;48.964;9.406;2023-06-10T07:56:39;6.53;;;5.93;;
13343;SDS011;6741;48.964;9.406;2023-06-10T07:59:06;5.82;;;5.32;;
13343;SDS011;6741;48.964;9.406;2023-06-10T08:01:33;5.50;;;5.10;;
13343;SDS011;6741;48.964;9.406;2023-06-10T08:04:03;5.32;;;4.93;;
13343;SDS011;6741;48.964;9.406;2023-06-10T08:06:32;5.93;;;5.43;;
13343;SDS011;6741;48.964;9.406;2023-06-10T08:08:59;5.45;;;5.05;;
13343;SDS011;6741;48.964;9.406;2023-06-10T08:11:26;5.90;;;5.40;;
13343;SDS011;6741;48.964;9.406;2023-06-10T08:13:56;5.20;;;4.80;;
13343;SDS011;6741;48.964;9.406;2023-06-10T08:16:22;5.38;;;4.97;;
13343;SDS011;6741;48.964;9.406;2023-06-10T08:18:49;5.28;;;4.88;;
13343;SDS011;6741;48.964;9.406;2023-06-10T08:21:16;5.78;;;5.28;;
13343;SDS011;6741;48.964;9.406;2023-06-10T08:23:43;4.70;;;4.40;;
13343;SDS011;6741;48.964;9.406;2023-06-10T08:26:12;4.72;;;4.32;;
13343;SDS011;6741;48.964;9.406;2023-06-10T08:28:39;4.78;;;4.38;;
13343;SDS011;6741;48.964;9.406;2023-06-10T08:31:07;5.20;;;4.78;;
13343;SDS011;6741;48.964;9.406;2023-06-10T08:33:34;5.07;;;4.68;;
13343;SDS011;6741;48.964;9.406;2023-06-10T08:36:01;5.97;;;4.95;;
13343;SDS011;6741;48.964;9.406;2023-06-10T08:38:28;6.38;;;5.00;;
13343;SDS011;6741;48.964;9.406;2023-06-10T08:40:56;5.70;;;5.20;;
13343;SDS011;6741;48.964;9.406;2023-06-10T08:43:27;5.82;;;5.32;;
13343;SDS011;6741;48.964;9.406;2023-06-10T08:45:59;5.18;;;4.78;;
13343;SDS011;6741;48.964;9.406;2023-06-10T08:48:30;5.32;;;4.93;;
13343;SDS011;6741;48.964;9.406;2023-06-10T08:50:59;5.88;;;5.38;;
13343;SDS011;6741;48.964;9.406;2023-06-10T08:53:26;6.15;;;5.65;;
13343;SDS011;6741;48.964;9.406;2023-06-10T08:55:56;5.45;;;4.95;;
13343;SDS011;6741;48.964;9.406;2023-06-10T08:58:27;5.20;;;4.90;;
13343;SDS011;6741;48.964;9.406;2023-06-10T09:00:54;5.20;;;4.80;;
13343;SDS011;6741;48.964;9.406;2023-06-10T09:03:22;5.60;;;5.20;;
13343;SDS011;6741;48.964;9.406;2023-06-10T09:05:52;5.88;;;5.38;;
13343;SDS011;6741;48.964;9.406;2023-06-10T09:08:20;6.45;;;5.43;;
13343;SDS011;6741;48.964;9.406;2023-06-10T09:10:47;5.82;;;5.43;;
13343;SDS011;6741;48.964;9.406;2023-06-10T09:13:14;5.90;;;5.30;;
13343;SDS011;6741;48.964;9.406;2023-06-10T09:15:43;5.88;;;5.38;;
13343;SDS011;6741;48.964;9.406;2023-06-10T09:18:11;5.78;;;5.30;;
13343;SDS011;6741;48.964;9.406;2023-06-10T09:20:38;5.80;;;5.20;;
13343;SDS011;6741;48.964;9.406;2023-06-10T09:23:07;6.00;;;5.45;;
13343;SDS011;6741;48.964;9.406;2023-06-10T09:25:34;5.88;;;5.30;;
13343;SDS011;6741;48.964;9.406;2023-06-10T09:28:03;5.63;;;5.22;;
13343;SDS011;6741;48.964;9.406;2023-06-10T09:30:30;5.47;;;5.07;;
13343;SDS011;6741;48.964;9.406;2023-06-10T09:32:59;5.72;;;5.32;;
13343;SDS011;6741;48.964;9.406;2023-06-10T09:35:27;5.30;;;4.90;;
13343;SDS011;6741;48.964;9.406;2023-06-10T09:37:55;6.53;;;5.88;;
13343;SDS011;6741;48.964;9.406;2023-06-10T09:40:24;5.50;;;5.00;;
13343;SDS011;6741;48.964;9.406;2023-06-10T09:42:53;5.78;;;5.28;;
13343;SDS011;6741;48.964;9.406;2023-06-10T09:45:21;6.32;;;5.75;;
13343;SDS011;6741;48.964;9.406;2023-06-10T09:47:51;6.07;;;5.50;;
13343;SDS011;6741;48.964;9.406;2023-06-10T09:50:18;6.53;;;5.43;;
13343;SDS011;6741;48.964;9.406;2023-06-10T09:52:45;5.30;;;4.80;;
13343;SDS011;6741;48.964;9.406;2023-06-10T09:55:13;5.32;;;4.93;;
13343;SDS011;6741;48.964;9.406;2023-06-10T09:57:43;5.68;;;5.20;;
13343;SDS011;6741;48.964;9.406;2023-06-10T10:00:14;5.50;;;5.00;;
13343;SDS011;6741;48.964;9.406;2023-06-10T10:02:45;5.63;;;5.10;;
13343;SDS011;6741;48.964;9.406;2023-06-10T10:05:13;4.78;;;4.40;;
13343;SDS011;6741;48.964;9.406;2023-06-10T10:07:41;4.65;;;4.25;;
13343;SDS011;6741;48.964;9.406;2023-06-10T10:10:12;4.63;;;4.22;;
13343;SDS011;6741;48.964;9.406;2023-06-10T10:12:40;4.95;;;4.55;;
13343;SDS011;6741;48.964;9.406;2023-06-10T10:15:10;4.43;;;4.13;;
13343;SDS011;6741;48.964;9.406;2023-06-10T10:17:37;4.63;;;4.30;;
13343;SDS011;6741;48.964;9.406;2023-06-10T10:20:08;4.88;;;4.40;;
13343;SDS011;6741;48.964;9.406;2023-06-10T10:22:38;4.68;;;4.38;;
13343;SDS011;6741;48.964;9.406;2023-06-10T10:25:09;5.00;;;4.68;;
13343;SDS011;6741;48.964;9.406;2023-06-10T10:27:40;5.00;;;4.63;;
13343;SDS011;6741;48.964;9.406;2023-06-10T10:30:14;6.40;;;4.88;;
13343;SDS011;6741;48.964;9.406;2023-06-10T10:32:51;5.22;;;4.82;;
13343;SDS011;6741;48.964;9.406;2023-06-10T10:35:23;5.45;;;4.97;;
13343;SDS011;6741;48.964;9.406;2023-06-10T10:37:52;5.60;;;5.20;;
13343;SDS011;6741;48.964;9.406;2023-06-10T10:40:19;4.72;;;4.38;;
13343;SDS011;6741;48.964;9.406;2023-06-10T10:42:49;4.70;;;4.30;;
13343;SDS011;6741;48.964;9.406;2023-06-10T10:45:17;4.97;;;4.68;;
13343;SDS011;6741;48.964;9.406;2023-06-10T10:47:45;4.80;;;4.20;;
13343;SDS011;6741;48.964;9.406;2023-06-10T10:50:13;5.05;;;4.65;;
13343;SDS011;6741;48.964;9.406;2023-06-10T10:52:51;5.03;;;4.63;;
13343;SDS011;6741;48.964;9.406;2023-06-10T10:55:19;4.78;;;4.32;;
13343;SDS011;6741;48.964;9.406;2023-06-10T10:57:54;5.07;;;4.20;;
13343;SDS011;6741;48.964;9.406;2023-06-10T11:00:27;4.97;;;4.47;;
13343;SDS011;6741;48.964;9.406;2023-06-10T11:02:57;4.80;;;4.15;;
13343;SDS011;6741;48.964;9.406;2023-06-10T11:05:31;4.70;;;4.18;;
13343;SDS011;6741;48.964;9.406;2023-06-10T11:08:03;4.30;;;4.00;;
13343;SDS011;6741;48.964;9.406;2023-06-10T11:10:31;4.85;;;4.45;;
13343;SDS011;6741;48.964;9.406;2023-06-10T11:13:00;4.43;;;4.13;;
13343;SDS011;6741;48.964;9.406;2023-06-10T11:15:32;4.47;;;4.07;;
13343;SDS011;6741;48.964;9.406;2023-06-10T11:20:53;3.80;;;3.50;;
13343;SDS011;6741;48.964;9.406;2023-06-10T11:23:32;3.95;;;3.65;;
13343;SDS011;6741;48.964;9.406;2023-06-10T11:26:19;4.05;;;3.75;;
13343;SDS011;6741;48.964;9.406;2023-06-10T11:31:38;3.40;;;3.20;;
13343;SDS011;6741;48.964;9.406;2023-06-10T11:34:09;3.97;;;3.67;;
13343;SDS011;6741;48.964;9.406;2023-06-10T11:36:38;3.47;;;3.28;;
13343;SDS011;6741;48.964;9.406;2023-06-10T11:39:10;4.00;;;3.63;;
13343;SDS011;6741;48.964;9.406;2023-06-10T11:41:38;4.25;;;3.95;;
13343;SDS011;6741;48.964;9.406;2023-06-10T11:44:10;3.80;;;3.50;;
13343;SDS011;6741;48.964;9.406;2023-06-10T11:46:38;3.58;;;3.33;;
13343;SDS011;6741;48.964;9.406;2023-06-10T11:49:07;3.45;;;3.22;;
13343;SDS011;6741;48.964;9.406;2023-06-10T11:51:35;3.85;;;3.55;;
13343;SDS011;6741;48.964;9.406;2023-06-10T11:54:04;5.28;;;3.88;;
13343;SDS011;6741;48.964;9.406;2023-06-10T11:56:31;3.65;;;3.45;;
13343;SDS011;6741;48.964;9.406;2023-06-10T11:58:59;3.30;;;3.10;;
13343;SDS011;6741;48.964;9.406;2023-06-10T12:01:31;3.75;;;3.45;;
13343;SDS011;6741;48.964;9.406;2023-06-10T12:03:59;3.70;;;3.40;;
13343;SDS011;6741;48.964;9.406;2023-06-10T12:06:37;3.75;;;3.45;;
13343;SDS011;6741;48.964;9.406;2023-06-10T12:09:05;3.22;;;3.03;;
13343;SDS011;6741;48.964;9.406;2023-06-10T12:11:33;3.95;;;3.65;;
13343;SDS011;6741;48.964;9.406;2023-06-10T12:14:01;3.45;;;3.15;;
13343;SDS011;6741;48.964;9.406;2023-06-10T12:16:30;3.03;;;2.83;;
13343;SDS011;6741;48.964;9.406;2023-06-10T12:19:01;2.90;;;2.70;;
13343;SDS011;6741;48.964;9.406;2023-06-10T12:21:29;3.17;;;2.97;;
13343;SDS011;6741;48.964;9.406;2023-06-10T12:23:59;3.45;;;3.15;;
13343;SDS011;6741;48.964;9.406;2023-06-10T12:26:33;3.10;;;2.90;;
13343;SDS011;6741;48.964;9.406;2023-06-10T12:29:20;3.35;;;2.70;;
13343;SDS011;6741;48.964;9.406;2023-06-10T12:32:00;3.60;;;3.30;;
13343;SDS011;6741;48.964;9.406;2023-06-10T12:34:33;3.20;;;3.00;;
13343;SDS011;6741;48.964;9.406;2023-06-10T12:37:04;3.15;;;2.95;;
13343;SDS011;6741;48.964;9.406;2023-06-10T12:39:32;3.47;;;2.92;;
13343;SDS011;6741;48.964;9.406;2023-06-10T12:41:59;2.97;;;2.78;;
13343;SDS011;6741;48.964;9.406;2023-06-10T12:44:30;3.63;;;3.33;;
13343;SDS011;6741;48.964;9.406;2023-06-10T12:46:59;3.55;;;3.35;;
13343;SDS011;6741;48.964;9.406;2023-06-10T12:49:26;3.30;;;3.10;;
13343;SDS011;6741;48.964;9.406;2023-06-10T12:51:53;3.55;;;3.08;;
13343;SDS011;6741;48.964;9.406;2023-06-10T12:54:21;3.28;;;3.08;;
13343;SDS011;6741;48.964;9.406;2023-06-10T12:56:48;3.30;;;3.10;;
13343;SDS011;6741;48.964;9.406;2023-06-10T12:59:15;3.40;;;3.20;;
13343;SDS011;6741;48.964;9.406;2023-06-10T13:01:42;3.40;;;3.20;;
13343;SDS011;6741;48.964;9.406;2023-06-10T13:04:11;3.80;;;3.50;;
13343;SDS011;6741;48.964;9.406;2023-06-10T13:06:38;3.38;;;3.17;;
13343;SDS011;6741;48.964;9.406;2023-06-10T13:09:05;3.28;;;3.08;;
13343;SDS011;6741;48.964;9.406;2023-06-10T13:11:33;3.45;;;3.25;;
13343;SDS011;6741;48.964;9.406;2023-06-10T13:14:01;3.20;;;3.00;;
13343;SDS011;6741;48.964;9.406;2023-06-10T13:16:30;3.50;;;3.30;;
13343;SDS011;6741;48.964;9.406;2023-06-10T13:18:57;3.35;;;3.15;;
13343;SDS011;6741;48.964;9.406;2023-06-10T13:21:25;3.25;;;3.05;;
13343;SDS011;6741;48.964;9.406;2023-06-10T13:23:52;3.50;;;3.28;;
13343;SDS011;6741;48.964;9.406;2023-06-10T13:26:19;3.35;;;3.05;;
13343;SDS011;6741;48.964;9.406;2023-06-10T13:28:46;3.75;;;3.47;;
13343;SDS011;6741;48.964;9.406;2023-06-10T13:31:13;3.83;;;3.10;;
13343;SDS011;6741;48.964;9.406;2023-06-10T13:33:40;3.50;;;3.30;;
13343;SDS011;6741;48.964;9.406;2023-06-10T13:36:09;3.50;;;3.30;;
13343;SDS011;6741;48.964;9.406;2023-06-10T13:38:38;3.72;;;3.42;;
13343;SDS011;6741;48.964;9.406;2023-06-10T13:41:05;3.15;;;2.95;;
13343;SDS011;6741;48.964;9.406;2023-06-10T13:43:32;3.53;;;3.28;;
13343;SDS011;6741;48.964;9.406;2023-06-10T13:45:59;3.83;;;3.53;;
13343;SDS011;6741;48.964;9.406;2023-06-10T13:48:26;4.00;;;3.70;;
13343;SDS011;6741;48.964;9.406;2023-06-10T13:50:53;3.90;;;3.60;;
13343;SDS011;6741;48.964;9.406;2023-06-10T13:53:20;3.40;;;3.20;;
13343;SDS011;6741;48.964;9.406;2023-06-10T13:55:48;2.97;;;2.80;;
13343;SDS011;6741;48.964;9.406;2023-06-10T13:58:15;3.30;;;3.10;;
13343;SDS011;6741;48.964;9.406;2023-06-10T14:00:42;3.78;;;3.30;;
13343;SDS011;6741;48.964;9.406;2023-06-10T14:03:09;3.80;;;3.45;;
13343;SDS011;6741;48.964;9.406;2023-06-10T14:05:36;3.50;;;3.30;;
13343;SDS011;6741;48.964;9.406;2023-06-10T14:08:04;3.28;;;3.08;;
13343;SDS011;6741;48.964;9.406;2023-06-10T14:10:31;3.00;;;2.80;;
13343;SDS011;6741;48.964;9.406;2023-06-10T14:12:59;3.22;;;2.80;;
13343;SDS011;6741;48.964;9.406;2023-06-10T14:15:26;3.38;;;3.10;;
13343;SDS011;6741;48.964;9.406;2023-06-10T14:17:53;3.95;;;3.65;;
13343;SDS011;6741;48.964;9.406;2023-06-10T14:20:20;3.55;;;3.25;;
13343;SDS011;6741;48.964;9.406;2023-06-10T14:22:47;3.65;;;3.35;;
13343;SDS011;6741;48.964;9.406;2023-06-10T14:25:14;3.72;;;3.42;;
13343;SDS011;6741;48.964;9.406;2023-06-10T14:27:41;3.83;;;3.58;;
13343;SDS011;6741;48.964;9.406;2023-06-10T14:30:09;3.50;;;3.30;;
13343;SDS011;6741;48.964;9.406;2023-06-10T14:32:36;3.15;;;2.95;;
13343;SDS011;6741;48.964;9.406;2023-06-10T14:35:03;3.30;;;3.10;;
13343;SDS011;6741;48.964;9.406;2023-06-10T14:37:31;3.50;;;3.30;;
13343;SDS011;6741;48.964;9.406;2023-06-10T14:39:58;3.40;;;3.20;;
13343;SDS011;6741;48.964;9.406;2023-06-10T14:42:24;4.10;;;3.80;;
13343;SDS011;6741;48.964;9.406;2023-06-10T14:44:51;4.20;;;3.90;;
13343;SDS011;6741;48.964;9.406;2023-06-10T14:47:20;3.58;;;3.38;;
13343;SDS011;6741;48.964;9.406;2023-06-10T14:49:47;3.42;;;3.22;;
13343;SDS011;6741;48.964;9.406;2023-06-10T14:52:14;3.70;;;3.50;;
13343;SDS011;6741;48.964;9.406;2023-06-10T14:54:40;3.13;;;2.83;;
13343;SDS011;6741;48.964;9.406;2023-06-10T14:57:07;3.08;;;2.97;;
13343;SDS011;6741;48.964;9.406;2023-06-10T14:59:35;3.33;;;3.13;;
13343;SDS011;6741;48.964;9.406;2023-06-10T15:02:02;3.25;;;3.05;;
13343;SDS011;6741;48.964;9.406;2023-06-10T15:04:31;3.33;;;3.13;;
13343;SDS011;6741;48.964;9.406;2023-06-10T15:06:58;3.42;;;3.22;;
13343;SDS011;6741;48.964;9.406;2023-06-10T15:09:25;3.47;;;3.20;;
13343;SDS011;6741;48.964;9.406;2023-06-10T15:11:52;3.50;;;3.03;;
13343;SDS011;6741;48.964;9.406;2023-06-10T15:14:19;3.30;;;3.08;;